sensor_id;sensor_type;location;lat;lon;timestamp;P1;durP1;ratioP1;P2;durP2;ratioP2
75220;SDS011;63802;53.232;6.570;2024-03-08T00:01:38;36.35;;;13.20;;
75220;SDS011;63802;53.232;6.570;2024-03-08T00:04:05;39.38;;;13.38;;
75220;SDS011;63802;53.232;6.570;2024-03-08T00:06:44;38.97;;;15.25;;
75220;SDS011;63802;53.232;6.570;2024-03-08T00:09:30;35.38;;;13.63;;
75220;SDS011;63802;53.232;6.570;2024-03-08T00:12:06;37.92;;;14.48;;
75220;SDS011;63802;53.232;6.570;2024-03-08T00:14:40;35.05;;;12.90;;
75220;SDS011;63802;53.232;6.570;2024-03-08T00:17:10;39.10;;;15.35;;
75220;SDS011;63802;53.232;6.570;2024-03-08T00:19:41;35.65;;;13.65;;
75220;SDS011;63802;53.232;6.570;2024-03-08T00:22:22;37.83;;;14.63;;
75220;SDS011;63802;53.232;6.570;2024-03-08T00:24:49;38.30;;;15.13;;
75220;SDS011;63802;53.232;6.570;2024-03-08T00:27:24;42.40;;;16.08;;
75220;SDS011;63802;53.232;6.570;2024-03-08T00:32:57;39.85;;;13.77;;
75220;SDS011;63802;53.232;6.570;2024-03-08T00:35:39;36.85;;;15.60;;
75220;SDS011;63802;53.232;6.570;2024-03-08T00:38:26;45.50;;;15.45;;
75220;SDS011;63802;53.232;6.570;2024-03-08T00:41:10;46.10;;;15.25;;
75220;SDS011;63802;53.232;6.570;2024-03-08T00:43:57;44.95;;;16.10;;
75220;SDS011;63802;53.232;6.570;2024-03-08T00:52:33;38.20;;;13.88;;
75220;SDS011;63802;53.232;6.570;2024-03-08T00:59:03;38.55;;;13.77;;
75220;SDS011;63802;53.232;6.570;2024-03-08T01:01:55;36.90;;;14.35;;
75220;SDS011;63802;53.232;6.570;2024-03-08T01:12:52;37.50;;;14.15;;
75220;SDS011;63802;53.232;6.570;2024-03-08T01:15:50;40.78;;;14.40;;
75220;SDS011;63802;53.232;6.570;2024-03-08T01:18:39;41.80;;;14.40;;
75220;SDS011;63802;53.232;6.570;2024-03-08T01:21:15;36.67;;;14.75;;
75220;SDS011;63802;53.232;6.570;2024-03-08T01:23:44;38.92;;;14.93;;
75220;SDS011;63802;53.232;6.570;2024-03-08T01:26:10;39.85;;;14.48;;
75220;SDS011;63802;53.232;6.570;2024-03-08T01:31:11;43.45;;;14.82;;
75220;SDS011;63802;53.232;6.570;2024-03-08T01:34:07;40.10;;;14.15;;
75220;SDS011;63802;53.232;6.570;2024-03-08T01:41:48;35.05;;;14.40;;
75220;SDS011;63802;53.232;6.570;2024-03-08T01:44:19;34.03;;;13.43;;
75220;SDS011;63802;53.232;6.570;2024-03-08T01:49:59;31.73;;;12.77;;
75220;SDS011;63802;53.232;6.570;2024-03-08T01:52:28;33.47;;;13.98;;
75220;SDS011;63802;53.232;6.570;2024-03-08T01:54:59;32.28;;;13.50;;
75220;SDS011;63802;53.232;6.570;2024-03-08T01:57:41;39.33;;;13.80;;
75220;SDS011;63802;53.232;6.570;2024-03-08T02:00:10;41.20;;;14.05;;
75220;SDS011;63802;53.232;6.570;2024-03-08T02:02:50;36.75;;;14.10;;
75220;SDS011;63802;53.232;6.570;2024-03-08T02:05:38;38.63;;;14.68;;
75220;SDS011;63802;53.232;6.570;2024-03-08T02:08:14;42.43;;;16.37;;
75220;SDS011;63802;53.232;6.570;2024-03-08T02:10:41;39.63;;;13.95;;
75220;SDS011;63802;53.232;6.570;2024-03-08T02:13:27;38.35;;;13.05;;
75220;SDS011;63802;53.232;6.570;2024-03-08T02:16:00;40.22;;;15.00;;
75220;SDS011;63802;53.232;6.570;2024-03-08T02:18:26;34.75;;;14.05;;
75220;SDS011;63802;53.232;6.570;2024-03-08T02:21:19;39.10;;;14.18;;
75220;SDS011;63802;53.232;6.570;2024-03-08T02:23:49;36.08;;;13.93;;
75220;SDS011;63802;53.232;6.570;2024-03-08T02:29:16;33.17;;;12.05;;
75220;SDS011;63802;53.232;6.570;2024-03-08T02:32:05;36.35;;;12.35;;
75220;SDS011;63802;53.232;6.570;2024-03-08T02:35:02;29.63;;;12.05;;
75220;SDS011;63802;53.232;6.570;2024-03-08T02:37:58;35.80;;;12.48;;
75220;SDS011;63802;53.232;6.570;2024-03-08T02:43:35;29.95;;;11.70;;
75220;SDS011;63802;53.232;6.570;2024-03-08T02:48:40;34.55;;;13.75;;
75220;SDS011;63802;53.232;6.570;2024-03-08T02:51:53;33.95;;;12.88;;
75220;SDS011;63802;53.232;6.570;2024-03-08T02:54:56;35.20;;;11.20;;
75220;SDS011;63802;53.232;6.570;2024-03-08T02:58:16;30.83;;;11.75;;
75220;SDS011;63802;53.232;6.570;2024-03-08T03:04:19;33.05;;;10.82;;
75220;SDS011;63802;53.232;6.570;2024-03-08T03:07:21;32.97;;;12.00;;
75220;SDS011;63802;53.232;6.570;2024-03-08T03:10:25;37.17;;;12.20;;
75220;SDS011;63802;53.232;6.570;2024-03-08T03:13:04;26.77;;;11.55;;
75220;SDS011;63802;53.232;6.570;2024-03-08T03:15:36;36.90;;;13.20;;
75220;SDS011;63802;53.232;6.570;2024-03-08T03:18:07;33.45;;;12.43;;
75220;SDS011;63802;53.232;6.570;2024-03-08T03:20:56;30.92;;;11.75;;
75220;SDS011;63802;53.232;6.570;2024-03-08T03:26:24;28.98;;;12.07;;
75220;SDS011;63802;53.232;6.570;2024-03-08T03:28:53;30.08;;;10.75;;
75220;SDS011;63802;53.232;6.570;2024-03-08T03:31:48;33.13;;;11.98;;
75220;SDS011;63802;53.232;6.570;2024-03-08T03:54:49;20.17;;;8.77;;
75220;SDS011;63802;53.232;6.570;2024-03-08T03:57:41;27.48;;;10.63;;
75220;SDS011;63802;53.232;6.570;2024-03-08T04:00:18;28.95;;;12.35;;
75220;SDS011;63802;53.232;6.570;2024-03-08T04:03:27;34.67;;;11.73;;
75220;SDS011;63802;53.232;6.570;2024-03-08T04:05:55;27.85;;;10.68;;
75220;SDS011;63802;53.232;6.570;2024-03-08T04:14:40;31.42;;;12.48;;
75220;SDS011;63802;53.232;6.570;2024-03-08T04:17:12;29.50;;;11.55;;
75220;SDS011;63802;53.232;6.570;2024-03-08T04:33:01;34.50;;;12.68;;
75220;SDS011;63802;53.232;6.570;2024-03-08T04:36:08;26.20;;;11.20;;
75220;SDS011;63802;53.232;6.570;2024-03-08T04:39:06;31.48;;;10.10;;
75220;SDS011;63802;53.232;6.570;2024-03-08T04:41:59;27.20;;;10.85;;
75220;SDS011;63802;53.232;6.570;2024-03-08T04:44:40;27.65;;;11.98;;
75220;SDS011;63802;53.232;6.570;2024-03-08T04:47:30;26.25;;;10.15;;
75220;SDS011;63802;53.232;6.570;2024-03-08T04:49:59;34.25;;;11.55;;
75220;SDS011;63802;53.232;6.570;2024-03-08T04:55:50;30.40;;;11.75;;
75220;SDS011;63802;53.232;6.570;2024-03-08T04:58:45;30.60;;;12.02;;
75220;SDS011;63802;53.232;6.570;2024-03-08T05:04:32;27.43;;;9.90;;
75220;SDS011;63802;53.232;6.570;2024-03-08T05:07:03;29.55;;;10.52;;
75220;SDS011;63802;53.232;6.570;2024-03-08T05:14:45;25.83;;;10.00;;
75220;SDS011;63802;53.232;6.570;2024-03-08T05:20:46;31.70;;;10.93;;
75220;SDS011;63802;53.232;6.570;2024-03-08T05:23:22;28.52;;;11.45;;
75220;SDS011;63802;53.232;6.570;2024-03-08T05:26:03;27.53;;;11.87;;
75220;SDS011;63802;53.232;6.570;2024-03-08T05:28:30;26.73;;;10.80;;
75220;SDS011;63802;53.232;6.570;2024-03-08T05:30:57;29.08;;;10.45;;
75220;SDS011;63802;53.232;6.570;2024-03-08T05:33:33;32.70;;;9.95;;
75220;SDS011;63802;53.232;6.570;2024-03-08T05:36:27;27.80;;;10.95;;
75220;SDS011;63802;53.232;6.570;2024-03-08T05:39:13;28.55;;;10.80;;
75220;SDS011;63802;53.232;6.570;2024-03-08T05:41:51;24.60;;;10.90;;
75220;SDS011;63802;53.232;6.570;2024-03-08T05:44:26;30.48;;;11.23;;
75220;SDS011;63802;53.232;6.570;2024-03-08T05:46:54;32.70;;;10.45;;
75220;SDS011;63802;53.232;6.570;2024-03-08T05:49:29;25.35;;;10.90;;
75220;SDS011;63802;53.232;6.570;2024-03-08T05:52:01;33.40;;;11.30;;
75220;SDS011;63802;53.232;6.570;2024-03-08T05:54:40;30.10;;;11.00;;
75220;SDS011;63802;53.232;6.570;2024-03-08T05:57:18;29.02;;;11.93;;
75220;SDS011;63802;53.232;6.570;2024-03-08T05:59:54;28.65;;;10.15;;
75220;SDS011;63802;53.232;6.570;2024-03-08T06:18:56;31.48;;;10.13;;
75220;SDS011;63802;53.232;6.570;2024-03-08T06:21:29;26.92;;;10.88;;
75220;SDS011;63802;53.232;6.570;2024-03-08T06:24:02;27.35;;;11.35;;
75220;SDS011;63802;53.232;6.570;2024-03-08T06:26:47;24.95;;;9.30;;
75220;SDS011;63802;53.232;6.570;2024-03-08T06:29:19;33.72;;;10.98;;
75220;SDS011;63802;53.232;6.570;2024-03-08T06:32:15;27.23;;;9.95;;
75220;SDS011;63802;53.232;6.570;2024-03-08T06:34:41;21.40;;;8.52;;
75220;SDS011;63802;53.232;6.570;2024-03-08T06:37:18;29.33;;;10.13;;
75220;SDS011;63802;53.232;6.570;2024-03-08T06:43:02;32.10;;;9.98;;
75220;SDS011;63802;53.232;6.570;2024-03-08T06:54:19;27.70;;;10.55;;
75220;SDS011;63802;53.232;6.570;2024-03-08T07:00:12;35.95;;;10.85;;
75220;SDS011;63802;53.232;6.570;2024-03-08T07:03:07;29.80;;;10.30;;
75220;SDS011;63802;53.232;6.570;2024-03-08T07:11:16;26.88;;;10.15;;
75220;SDS011;63802;53.232;6.570;2024-03-08T07:13:47;35.70;;;10.13;;
75220;SDS011;63802;53.232;6.570;2024-03-08T07:17:00;25.88;;;9.73;;
75220;SDS011;63802;53.232;6.570;2024-03-08T07:19:33;26.13;;;9.60;;
75220;SDS011;63802;53.232;6.570;2024-03-08T07:22:05;28.10;;;10.50;;
75220;SDS011;63802;53.232;6.570;2024-03-08T07:24:44;28.92;;;10.00;;
75220;SDS011;63802;53.232;6.570;2024-03-08T07:27:36;26.25;;;11.50;;
75220;SDS011;63802;53.232;6.570;2024-03-08T07:30:04;22.45;;;9.27;;
75220;SDS011;63802;53.232;6.570;2024-03-08T07:32:30;27.40;;;10.73;;
75220;SDS011;63802;53.232;6.570;2024-03-08T07:37:43;21.48;;;10.38;;
75220;SDS011;63802;53.232;6.570;2024-03-08T07:42:40;24.73;;;10.13;;
75220;SDS011;63802;53.232;6.570;2024-03-08T07:45:06;26.27;;;11.13;;
75220;SDS011;63802;53.232;6.570;2024-03-08T07:47:38;27.13;;;10.05;;
75220;SDS011;63802;53.232;6.570;2024-03-08T07:50:06;29.40;;;9.90;;
75220;SDS011;63802;53.232;6.570;2024-03-08T07:52:35;22.23;;;10.32;;
75220;SDS011;63802;53.232;6.570;2024-03-08T07:55:08;26.05;;;11.27;;
75220;SDS011;63802;53.232;6.570;2024-03-08T07:57:35;25.05;;;11.07;;
75220;SDS011;63802;53.232;6.570;2024-03-08T08:00:04;23.48;;;10.18;;
75220;SDS011;63802;53.232;6.570;2024-03-08T08:05:41;31.42;;;11.23;;
75220;SDS011;63802;53.232;6.570;2024-03-08T08:08:09;27.77;;;11.25;;
75220;SDS011;63802;53.232;6.570;2024-03-08T08:10:40;28.58;;;11.18;;
75220;SDS011;63802;53.232;6.570;2024-03-08T08:13:07;29.63;;;10.95;;
75220;SDS011;63802;53.232;6.570;2024-03-08T08:15:32;30.38;;;11.15;;
75220;SDS011;63802;53.232;6.570;2024-03-08T08:18:04;28.75;;;10.60;;
75220;SDS011;63802;53.232;6.570;2024-03-08T08:20:41;29.00;;;10.85;;
75220;SDS011;63802;53.232;6.570;2024-03-08T08:23:19;29.67;;;10.65;;
75220;SDS011;63802;53.232;6.570;2024-03-08T08:25:45;24.67;;;9.15;;
75220;SDS011;63802;53.232;6.570;2024-03-08T08:28:25;27.33;;;11.18;;
75220;SDS011;63802;53.232;6.570;2024-03-08T08:30:56;26.58;;;11.35;;
75220;SDS011;63802;53.232;6.570;2024-03-08T08:36:51;31.15;;;11.18;;
75220;SDS011;63802;53.232;6.570;2024-03-08T08:39:19;29.27;;;11.27;;
75220;SDS011;63802;53.232;6.570;2024-03-08T08:41:59;24.30;;;11.23;;
75220;SDS011;63802;53.232;6.570;2024-03-08T08:44:24;27.77;;;11.93;;
75220;SDS011;63802;53.232;6.570;2024-03-08T08:46:52;23.40;;;10.98;;
75220;SDS011;63802;53.232;6.570;2024-03-08T08:49:18;26.35;;;11.00;;
75220;SDS011;63802;53.232;6.570;2024-03-08T08:54:59;26.40;;;11.23;;
75220;SDS011;63802;53.232;6.570;2024-03-08T08:57:29;28.30;;;11.43;;
75220;SDS011;63802;53.232;6.570;2024-03-08T09:00:11;28.77;;;12.63;;
75220;SDS011;63802;53.232;6.570;2024-03-08T09:03:01;26.05;;;10.07;;
75220;SDS011;63802;53.232;6.570;2024-03-08T09:08:13;24.27;;;10.52;;
75220;SDS011;63802;53.232;6.570;2024-03-08T09:10:43;24.98;;;11.45;;
75220;SDS011;63802;53.232;6.570;2024-03-08T09:13:18;25.30;;;11.50;;
75220;SDS011;63802;53.232;6.570;2024-03-08T09:15:45;23.40;;;10.98;;
75220;SDS011;63802;53.232;6.570;2024-03-08T09:18:12;26.77;;;11.85;;
75220;SDS011;63802;53.232;6.570;2024-03-08T09:20:43;23.88;;;11.27;;
75220;SDS011;63802;53.232;6.570;2024-03-08T09:25:45;25.33;;;10.82;;
75220;SDS011;63802;53.232;6.570;2024-03-08T09:28:14;30.10;;;11.70;;
75220;SDS011;63802;53.232;6.570;2024-03-08T09:31:07;24.08;;;10.70;;
75220;SDS011;63802;53.232;6.570;2024-03-08T09:33:38;25.17;;;11.35;;
75220;SDS011;63802;53.232;6.570;2024-03-08T09:36:19;31.33;;;11.52;;
75220;SDS011;63802;53.232;6.570;2024-03-08T09:39:12;28.17;;;11.25;;
75220;SDS011;63802;53.232;6.570;2024-03-08T09:44:17;26.35;;;11.85;;
75220;SDS011;63802;53.232;6.570;2024-03-08T09:49:32;26.05;;;11.70;;
75220;SDS011;63802;53.232;6.570;2024-03-08T09:54:52;25.90;;;11.15;;
75220;SDS011;63802;53.232;6.570;2024-03-08T10:00:21;23.65;;;11.38;;
75220;SDS011;63802;53.232;6.570;2024-03-08T10:03:00;25.35;;;11.30;;
75220;SDS011;63802;53.232;6.570;2024-03-08T10:05:26;24.27;;;11.35;;
75220;SDS011;63802;53.232;6.570;2024-03-08T10:07:53;26.13;;;11.43;;
75220;SDS011;63802;53.232;6.570;2024-03-08T10:10:35;29.65;;;12.38;;
75220;SDS011;63802;53.232;6.570;2024-03-08T10:13:25;27.40;;;11.88;;
75220;SDS011;63802;53.232;6.570;2024-03-08T10:16:17;25.45;;;11.30;;
75220;SDS011;63802;53.232;6.570;2024-03-08T10:18:53;26.67;;;11.82;;
75220;SDS011;63802;53.232;6.570;2024-03-08T10:21:21;30.02;;;12.38;;
75220;SDS011;63802;53.232;6.570;2024-03-08T10:23:57;26.77;;;12.50;;
75220;SDS011;63802;53.232;6.570;2024-03-08T10:26:34;23.83;;;10.70;;
75220;SDS011;63802;53.232;6.570;2024-03-08T10:29:05;33.03;;;12.18;;
75220;SDS011;63802;53.232;6.570;2024-03-08T10:31:57;30.67;;;12.48;;
75220;SDS011;63802;53.232;6.570;2024-03-08T10:34:49;30.70;;;12.43;;
75220;SDS011;63802;53.232;6.570;2024-03-08T10:37:28;26.52;;;11.68;;
75220;SDS011;63802;53.232;6.570;2024-03-08T10:40:16;27.58;;;12.25;;
75220;SDS011;63802;53.232;6.570;2024-03-08T10:52:56;27.75;;;12.02;;
75220;SDS011;63802;53.232;6.570;2024-03-08T10:55:44;27.00;;;11.93;;
75220;SDS011;63802;53.232;6.570;2024-03-08T10:58:32;26.27;;;11.38;;
75220;SDS011;63802;53.232;6.570;2024-03-08T11:14:42;25.35;;;12.85;;
75220;SDS011;63802;53.232;6.570;2024-03-08T11:23:42;25.45;;;11.93;;
75220;SDS011;63802;53.232;6.570;2024-03-08T11:26:33;26.10;;;12.57;;
75220;SDS011;63802;53.232;6.570;2024-03-08T11:47:49;29.50;;;12.10;;
75220;SDS011;63802;53.232;6.570;2024-03-08T11:50:58;26.83;;;12.57;;
75220;SDS011;63802;53.232;6.570;2024-03-08T11:53:32;34.17;;;12.70;;
75220;SDS011;63802;53.232;6.570;2024-03-08T12:04:36;28.15;;;12.73;;
75220;SDS011;63802;53.232;6.570;2024-03-08T12:07:09;29.63;;;13.45;;
75220;SDS011;63802;53.232;6.570;2024-03-08T12:15:50;28.70;;;13.38;;
75220;SDS011;63802;53.232;6.570;2024-03-08T12:18:29;25.00;;;11.65;;
75220;SDS011;63802;53.232;6.570;2024-03-08T12:21:10;29.10;;;13.13;;
75220;SDS011;63802;53.232;6.570;2024-03-08T12:24:16;30.10;;;13.60;;
75220;SDS011;63802;53.232;6.570;2024-03-08T12:30:30;28.33;;;13.07;;
75220;SDS011;63802;53.232;6.570;2024-03-08T12:33:05;27.90;;;13.80;;
75220;SDS011;63802;53.232;6.570;2024-03-08T12:35:38;26.60;;;13.30;;
75220;SDS011;63802;53.232;6.570;2024-03-08T12:42:09;27.88;;;12.70;;
75220;SDS011;63802;53.232;6.570;2024-03-08T12:50:21;28.20;;;12.77;;
75220;SDS011;63802;53.232;6.570;2024-03-08T13:02:59;26.58;;;13.02;;
75220;SDS011;63802;53.232;6.570;2024-03-08T13:05:37;26.88;;;13.13;;
75220;SDS011;63802;53.232;6.570;2024-03-08T13:08:05;27.00;;;12.43;;
75220;SDS011;63802;53.232;6.570;2024-03-08T13:13:31;23.80;;;13.07;;
75220;SDS011;63802;53.232;6.570;2024-03-08T13:19:37;24.70;;;12.18;;
75220;SDS011;63802;53.232;6.570;2024-03-08T13:22:29;27.85;;;13.20;;
75220;SDS011;63802;53.232;6.570;2024-03-08T13:24:59;25.60;;;12.13;;
75220;SDS011;63802;53.232;6.570;2024-03-08T13:27:49;29.20;;;13.30;;
75220;SDS011;63802;53.232;6.570;2024-03-08T13:30:15;25.13;;;13.15;;
75220;SDS011;63802;53.232;6.570;2024-03-08T13:33:31;24.05;;;10.93;;
75220;SDS011;63802;53.232;6.570;2024-03-08T13:36:12;24.80;;;11.30;;
75220;SDS011;63802;53.232;6.570;2024-03-08T13:39:09;24.08;;;10.98;;
75220;SDS011;63802;53.232;6.570;2024-03-08T13:48:33;25.00;;;11.90;;
75220;SDS011;63802;53.232;6.570;2024-03-08T13:51:12;22.20;;;11.43;;
75220;SDS011;63802;53.232;6.570;2024-03-08T13:56:40;25.63;;;11.52;;
75220;SDS011;63802;53.232;6.570;2024-03-08T13:59:30;20.42;;;10.68;;
75220;SDS011;63802;53.232;6.570;2024-03-08T14:02:18;23.73;;;11.35;;
75220;SDS011;63802;53.232;6.570;2024-03-08T14:04:47;24.90;;;11.18;;
75220;SDS011;63802;53.232;6.570;2024-03-08T14:16:11;22.15;;;10.85;;
75220;SDS011;63802;53.232;6.570;2024-03-08T14:19:28;27.13;;;12.07;;
75220;SDS011;63802;53.232;6.570;2024-03-08T14:22:42;22.77;;;10.50;;
75220;SDS011;63802;53.232;6.570;2024-03-08T14:25:16;23.52;;;10.35;;
75220;SDS011;63802;53.232;6.570;2024-03-08T14:28:29;21.85;;;10.45;;
75220;SDS011;63802;53.232;6.570;2024-03-08T14:33:53;21.15;;;10.57;;
75220;SDS011;63802;53.232;6.570;2024-03-08T14:36:30;21.13;;;10.68;;
75220;SDS011;63802;53.232;6.570;2024-03-08T14:39:08;23.45;;;11.45;;
75220;SDS011;63802;53.232;6.570;2024-03-08T14:41:50;22.27;;;10.50;;
75220;SDS011;63802;53.232;6.570;2024-03-08T14:44:24;25.33;;;11.07;;
75220;SDS011;63802;53.232;6.570;2024-03-08T14:46:57;23.48;;;11.07;;
75220;SDS011;63802;53.232;6.570;2024-03-08T14:49:24;23.50;;;10.60;;
75220;SDS011;63802;53.232;6.570;2024-03-08T14:57:27;20.65;;;10.45;;
75220;SDS011;63802;53.232;6.570;2024-03-08T15:00:09;24.70;;;10.95;;
75220;SDS011;63802;53.232;6.570;2024-03-08T15:03:12;23.13;;;10.45;;
75220;SDS011;63802;53.232;6.570;2024-03-08T15:06:06;20.73;;;10.10;;
75220;SDS011;63802;53.232;6.570;2024-03-08T15:09:01;25.30;;;11.20;;
75220;SDS011;63802;53.232;6.570;2024-03-08T15:14:39;24.70;;;11.55;;
75220;SDS011;63802;53.232;6.570;2024-03-08T15:20:24;26.42;;;12.60;;
75220;SDS011;63802;53.232;6.570;2024-03-08T15:22:56;24.75;;;11.40;;
75220;SDS011;63802;53.232;6.570;2024-03-08T15:25:42;23.25;;;11.00;;
75220;SDS011;63802;53.232;6.570;2024-03-08T15:28:34;26.42;;;11.32;;
75220;SDS011;63802;53.232;6.570;2024-03-08T15:31:58;24.42;;;10.77;;
75220;SDS011;63802;53.232;6.570;2024-03-08T15:35:00;25.90;;;11.15;;
75220;SDS011;63802;53.232;6.570;2024-03-08T15:37:45;23.83;;;10.57;;
75220;SDS011;63802;53.232;6.570;2024-03-08T15:40:12;24.63;;;11.07;;
75220;SDS011;63802;53.232;6.570;2024-03-08T15:43:01;27.13;;;11.93;;
75220;SDS011;63802;53.232;6.570;2024-03-08T16:39:38;21.92;;;10.15;;
75220;SDS011;63802;53.232;6.570;2024-03-08T16:42:14;22.67;;;10.20;;
75220;SDS011;63802;53.232;6.570;2024-03-08T16:51:19;22.88;;;10.40;;
75220;SDS011;63802;53.232;6.570;2024-03-08T16:53:55;27.50;;;11.75;;
75220;SDS011;63802;53.232;6.570;2024-03-08T16:56:39;21.65;;;9.68;;
75220;SDS011;63802;53.232;6.570;2024-03-08T17:05:43;23.23;;;9.68;;
75220;SDS011;63802;53.232;6.570;2024-03-08T17:38:16;25.60;;;11.68;;
75220;SDS011;63802;53.232;6.570;2024-03-08T17:41:33;24.42;;;9.88;;
75220;SDS011;63802;53.232;6.570;2024-03-08T18:05:50;26.45;;;11.18;;
75220;SDS011;63802;53.232;6.570;2024-03-08T18:12:15;29.40;;;11.30;;
75220;SDS011;63802;53.232;6.570;2024-03-08T18:15:20;25.75;;;11.23;;
75220;SDS011;63802;53.232;6.570;2024-03-08T18:18:22;30.95;;;11.93;;
75220;SDS011;63802;53.232;6.570;2024-03-08T18:21:21;24.35;;;10.90;;
75220;SDS011;63802;53.232;6.570;2024-03-08T18:24:36;27.88;;;11.00;;
75220;SDS011;63802;53.232;6.570;2024-03-08T18:27:31;26.58;;;11.20;;
75220;SDS011;63802;53.232;6.570;2024-03-08T18:30:16;26.45;;;11.27;;
75220;SDS011;63802;53.232;6.570;2024-03-08T18:36:37;24.67;;;10.63;;
75220;SDS011;63802;53.232;6.570;2024-03-08T19:00:07;26.33;;;11.48;;
75220;SDS011;63802;53.232;6.570;2024-03-08T19:03:09;24.98;;;11.57;;
75220;SDS011;63802;53.232;6.570;2024-03-08T19:05:48;27.50;;;12.75;;
75220;SDS011;63802;53.232;6.570;2024-03-08T19:12:25;28.55;;;12.05;;
75220;SDS011;63802;53.232;6.570;2024-03-08T19:15:15;28.20;;;11.88;;
75220;SDS011;63802;53.232;6.570;2024-03-08T20:19:04;27.73;;;12.02;;
75220;SDS011;63802;53.232;6.570;2024-03-08T20:24:50;27.15;;;11.40;;
75220;SDS011;63802;53.232;6.570;2024-03-08T20:27:51;24.75;;;10.27;;
75220;SDS011;63802;53.232;6.570;2024-03-08T20:30:47;26.58;;;11.07;;
75220;SDS011;63802;53.232;6.570;2024-03-08T20:33:32;24.83;;;10.35;;
75220;SDS011;63802;53.232;6.570;2024-03-08T20:39:30;25.50;;;11.02;;
75220;SDS011;63802;53.232;6.570;2024-03-08T20:44:51;25.38;;;10.65;;
75220;SDS011;63802;53.232;6.570;2024-03-08T20:50:55;25.55;;;11.73;;
75220;SDS011;63802;53.232;6.570;2024-03-08T21:00:36;22.52;;;10.43;;
75220;SDS011;63802;53.232;6.570;2024-03-08T21:06:51;23.98;;;10.02;;
75220;SDS011;63802;53.232;6.570;2024-03-08T21:09:34;28.92;;;10.90;;
75220;SDS011;63802;53.232;6.570;2024-03-08T21:31:07;25.55;;;9.95;;
75220;SDS011;63802;53.232;6.570;2024-03-08T21:38:39;27.25;;;10.65;;
75220;SDS011;63802;53.232;6.570;2024-03-08T21:44:26;25.13;;;10.50;;
75220;SDS011;63802;53.232;6.570;2024-03-08T21:46:55;24.63;;;9.88;;
75220;SDS011;63802;53.232;6.570;2024-03-08T23:13:00;24.40;;;9.23;;
75220;SDS011;63802;53.232;6.570;2024-03-08T23:15:51;24.65;;;10.25;;
75220;SDS011;63802;53.232;6.570;2024-03-08T23:43:32;24.35;;;9.07;;
75220;SDS011;63802;53.232;6.570;2024-03-08T23:46:25;22.58;;;8.98;;
75220;SDS011;63802;53.232;6.570;2024-03-08T23:49:23;22.73;;;9.23;;
75220;SDS011;63802;53.232;6.570;2024-03-08T23:52:09;31.00;;;9.68;;
